Flight Track Log - Related Links

Times and Time Zones

All times are in EDT time to prevent confusion due to time zone crossing. See the UAL4234 flight status page for this flight to view local times or setup timezone preferences in your user account.


Time Position Orientation Groundspeed Altitude Reporting Facility
EDT Latitude Longitude Course Direction KTS MPH feet Rate Location/Type
Thu 10:29:20 PM 43.1239 -77.6761 North 149 171 1,200  Level Cleveland Center
Thu 10:29:57 PM 43.1511 -77.6747 North 173 199 2,600 2,628 Climbing Cleveland Center
Thu 10:31:21 PM 43.1614 -77.7597 279° West 225 259 6,500 2,792 Climbing Cleveland Center
Thu 10:32:21 PM 43.0975 -77.7856 196° South 180 207 9,300 2,750 Climbing Cleveland Center
Thu 10:33:21 PM 43.0200 -77.7692 171° South 221 254 12,000 2,750 Climbing Cleveland Center
Thu 10:34:21 PM 42.9403 -77.7528 171° South 253 291 14,800 2,550 Climbing Cleveland Center
Thu 10:35:21 PM 42.8608 -77.7394 173° South 284 327 17,100 1,750 Climbing Cleveland Center
Thu 10:36:21 PM 42.7714 -77.7492 185° South 306 352 18,300 1,450 Climbing Cleveland Center
Thu 10:37:21 PM 42.6886 -77.7725 192° South 332 382 20,000 1,950 Climbing Cleveland Center
Thu 10:38:21 PM 42.5811 -77.8028 192° South 339 390 22,200 1,950 Climbing Cleveland Center
Thu 10:39:21 PM 42.4814 -77.8242 189° South 354 407 23,900 1,700 Climbing Cleveland Center
Thu 10:40:21 PM 42.3819 -77.8508 191° South 359 413 25,600 1,550 Climbing Cleveland Center
Thu 10:41:21 PM 42.2806 -77.8778 191° South 371 427 27,000 700 Climbing Cleveland Center
Thu 10:42:21 PM 42.1728 -77.9047 190° South 383 441 27,000  Level Cleveland Center
Thu 10:43:21 PM 42.0586 -77.9347 191° South 403 464 27,000  Level Cleveland Center
Thu 10:44:21 PM 41.9406 -77.9647 191° South 422 486 27,000  Level Cleveland Center
Thu 10:45:21 PM 41.8286 -77.9917 190° South 446 513 27,000  Level Cleveland Center
Thu 10:46:21 PM 41.7083 -78.0214 190° South 446 513 27,000  Level Cleveland Center
Thu 10:47:21 PM 41.5881 -78.0511 190° South 446 513 27,000  Level Cleveland Center
Thu 10:48:21 PM 41.4658 -78.0808 190° South 446 513 27,000  Level Cleveland Center
Thu 10:49:30 PM 41.3192 -78.1167 190° South 442 509 27,000  Level New York Center
Thu 10:50:29 PM 41.1953 -78.1308 185° South 448 516 27,000  Level New York Center
Thu 10:51:27 PM 41.0719 -78.0708 160° South 448 516 27,000  Level New York Center
Thu 10:52:28 PM 40.9506 -78.0108 160° South 458 527 27,000 -98 Level New York Center
Thu 10:53:29 PM 40.8397 -77.9142 147° Southeast 463 533 26,800 -1,230 Descending New York Center
Thu 10:54:30 PM 40.7256 -77.8364 153° Southeast 468 539 24,500 -2,182 Descending New York Center
Thu 10:55:30 PM 40.6169 -77.7706 155° Southeast 456 525 22,400 -2,017 Descending New York Center
Thu 10:56:29 PM 40.5119 -77.7108 157° South 438 504 20,500 -1,714 Descending New York Center
Thu 10:57:29 PM 40.4072 -77.6483 156° South 424 488 19,000 -1,261 Descending New York Center
Thu 10:58:28 PM 40.3206 -77.5964 155° Southeast 399 459 18,000 -1,109 Descending New York Center
Thu 10:59:28 PM 40.2117 -77.5311 155° Southeast 392 451 16,800 -942 Descending New York Center
Thu 11:00:29 PM 40.1231 -77.4792 156° South 392 451 16,100 -600 Descending New York Center
Thu 11:01:28 PM 40.0175 -77.4256 159° South 386 444 15,600 -1,250 Descending New York Center
Thu 11:02:29 PM 39.9250 -77.4033 170° South 376 433 13,600 -1,880 Descending New York Center
Thu 11:03:58 PM 39.7667 -77.3667 170° South 349 402 10,900 -1,450 Descending Potomac TRACON
Thu 11:04:58 PM 39.6833 -77.3500 171° South 339 390 10,000 -474 Descending Potomac TRACON
Thu 11:05:52 PM 39.6000 -77.3500 180° South 299 344 10,000 -700 Level Potomac TRACON
Thu 11:06:58 PM 39.5333 -77.3833 201° Southwest 247 284 8,600 -1,545 Descending Potomac TRACON
Thu 11:08:04 PM 39.4500 -77.4167 197° South 242 278 6,600 -1,810 Descending Potomac TRACON
Thu 11:09:04 PM 39.3833 -77.4500 201° Southwest 237 273 4,800 -1,737 Descending Potomac TRACON
Thu 11:09:58 PM 39.3333 -77.4500 180° South 233 268 3,300 -947 Descending Potomac TRACON
Thu 11:10:58 PM 39.2667 -77.4500 180° South 224 258 3,000 -158 Descending Potomac TRACON
Thu 11:11:52 PM 39.2167 -77.4500 180° South 234 269 3,000  Level Potomac TRACON
Thu 11:12:58 PM 39.1500 -77.4500 180° South 207 238 3,000  Level Potomac TRACON
Thu 11:14:04 PM 39.1167 -77.4500 180° South 112 129 3,000 -333 Level Potomac TRACON
Thu 11:15:04 PM 39.0667 -77.4500 180° South 123 142 2,300 -700 Descending Potomac TRACON

Login

Don't have an account? Register now (free) for customized features, flight alerts, and more!